^^
Datos históricos de la estación: Murcia-Puente Tocinos
Diario Informe para Diciembre 22, 2019 Unidades:  Ingés    Métrico   Ambas
Diario Semanal Mensual Anual
  Máxima: Mínima: Promedio:
Temperatura: 73.2 °F 58.6 °F 67.3 °F
Punto de rocio: 44.1 °F 36.1 °F 40.1 °F
Humedad: 55% 27% 38%
Velocidad viento: 14.7mph 1.4mph 7.6mph
Racha viento: 30mph - -
Viento- - SSO
Presión: 30.1 in 29.8 in -
Precipitación: 0 in    
 
 
Tabla de datos para Diciembre 22, 2019
Hora Temperatura Punto de rocio Presión Viento Velocidad viento Racha viento Humedad Intensidad lluvia(por hora) Nubes
00:04 70.7 °F 40.3 °F 29.8 in SO 11.7 mph 24.2 mph 33% 0 in
00:09 70.9 °F 39.7 °F 29.8 in SO 11.8 mph 24 mph 32.2% 0 in
00:14 70.9 °F 39.6 °F 29.8 in SO 12.9 mph 29 mph 32% 0 in
00:19 71.1 °F 39.6 °F 29.8 in SO 13.5 mph 29 mph 32% 0 in
00:24 70.9 °F 39.4 °F 29.8 in SO 14.2 mph 24.2 mph 32% 0 in
00:29 70.5 °F 39 °F 29.8 in SO 14.7 mph 27.6 mph 31.8% 0 in
00:34 70.5 °F 38.5 °F 29.8 in SO 14.7 mph 28 mph 31% 0 in
00:39 70.5 °F 38.5 °F 29.8 in SO 14.7 mph 26 mph 31% 0 in
00:44 70.5 °F 38.5 °F 29.8 in SO 13.4 mph 22 mph 31% 0 in
00:49 70.3 °F 38.3 °F 29.8 in SO 12.5 mph 22.5 mph 31% 0 in
00:54 70.3 °F 38.3 °F 29.8 in SO 12.8 mph 26.5 mph 31% 0 in
00:59 70.3 °F 38.3 °F 29.8 in SO 13 mph 26 mph 31% 0 in
01:04 70.3 °F 38.3 °F 29.8 in SO 11.9 mph 22.3 mph 31% 0 in
01:09 70.2 °F 38.1 °F 29.8 in SO 11.4 mph 23 mph 31% 0 in
01:14 70.3 °F 38.3 °F 29.8 in SO 12.1 mph 24.2 mph 31% 0 in
01:19 70.2 °F 38.1 °F 29.8 in SO 12.5 mph 24 mph 31% 0 in
01:24 70.2 °F 37.9 °F 29.8 in SO 12.5 mph 21 mph 31% 0 in
01:29 69.8 °F 37.8 °F 29.8 in OSO 12.5 mph 18.1 mph 31% 0 in
01:34 69.4 °F 38.3 °F 29.8 in SO 10.9 mph 18.4 mph 32% 0 in
01:39 69.3 °F 38.1 °F 29.8 in OSO 10 mph 17 mph 32% 0 in
01:44 69.3 °F 37.8 °F 29.8 in SO 9.8 mph 24.2 mph 31.7% 0 in
01:49 69.4 °F 37.4 °F 29.8 in OSO 9.7 mph 27.6 mph 31% 0 in
01:54 69.3 °F 37.6 °F 29.8 in SO 11.4 mph 28 mph 31.2% 0 in
01:59 69.1 °F 37.9 °F 29.8 in SO 12.5 mph 20 mph 32% 0 in
02:04 68.7 °F 37.8 °F 29.8 in SO 11 mph 19 mph 32% 0 in
02:09 68.5 °F 37.6 °F 29.8 in SO 10.2 mph 21.3 mph 32% 0 in
02:14 68.7 °F 37.8 °F 29.8 in SO 10.2 mph 21 mph 32% 0 in
02:19 68.7 °F 37.8 °F 29.8 in SO 10.2 mph 18.5 mph 32% 0 in
02:24 68.7 °F 37.8 °F 29.8 in SO 10.5 mph 19 mph 32.2% 0 in
02:29 68.5 °F 38.3 °F 29.8 in SO 10.7 mph 17.8 mph 33% 0 in
02:34 68.5 °F 38.1 °F 29.8 in SO 10.3 mph 21.9 mph 33% 0 in
02:39 68.4 °F 38.1 °F 29.8 in SO 10 mph 23 mph 32.9% 0 in
02:44 68.4 °F 38.1 °F 29.8 in SO 11.9 mph 23 mph 33% 0 in
02:49 68.4 °F 38.1 °F 29.8 in SO 13 mph 21 mph 33% 0 in
02:54 68.2 °F 37.9 °F 29.8 in SO 12.1 mph 23.5 mph 33% 0 in
02:59 68.4 °F 38.1 °F 29.8 in SO 11.4 mph 23 mph 33% 0 in
03:04 68.2 °F 37.9 °F 29.8 in SO 11.2 mph 19 mph 33% 0 in
03:09 68 °F 37.8 °F 29.8 in SO 11.2 mph 19.7 mph 33% 0 in
03:14 67.6 °F 38.1 °F 29.8 in SSO 9.9 mph 20 mph 33.8% 0 in
03:19 67.5 °F 38.1 °F 29.8 in SO 9.2 mph 23.5 mph 34% 0 in
03:24 67.5 °F 37.9 °F 29.9 in SO 10.5 mph 25.6 mph 33.7% 0 in
03:29 67.6 °F 37.6 °F 29.9 in SO 11.4 mph 26 mph 33% 0 in
03:34 67.6 °F 37.6 °F 29.9 in SO 11.3 mph 26.5 mph 33% 0 in
03:39 67.8 °F 37.6 °F 29.9 in SO 11.2 mph 26 mph 33% 0 in
03:44 67.8 °F 37.6 °F 29.9 in SO 10.6 mph 20 mph 33% 0 in
03:49 67.6 °F 37.4 °F 29.9 in SO 10.2 mph 19.2 mph 33% 0 in
03:54 67.5 °F 37.2 °F 29.9 in SO 9.1 mph 20 mph 33% 0 in
03:59 67.5 °F 37.8 °F 29.9 in SO 8.5 mph 20 mph 33.8% 0 in
04:04 67.1 °F 37.8 °F 29.9 in SO 8.3 mph 15.2 mph 34% 0 in
04:09 66.9 °F 37.6 °F 29.9 in SO 8.1 mph 18.4 mph 34% 0 in
04:14 66.9 °F 37.6 °F 29.9 in SO 8.3 mph 18 mph 34% 0 in
04:19 66.7 °F 37.4 °F 29.9 in SO 8.5 mph 16 mph 34% 0 in
04:24 66.6 °F 37.8 °F 29.9 in SO 8 mph 15 mph 34.7% 0 in
04:29 66.6 °F 37.8 °F 29.9 in SO 7.6 mph 13.8 mph 34.7% 0 in
04:34 66.6 °F 37.9 °F 29.9 in SO 6.8 mph 14 mph 35% 0 in
04:39 66.4 °F 37.9 °F 29.9 in SO 6.4 mph 12 mph 35% 0 in
04:44 66.2 °F 37.6 °F 29.9 in OSO 5.8 mph 9.2 mph 35% 0 in
04:49 66 °F 37.6 °F 29.9 in SO 5.4 mph 11.5 mph 35% 0 in
04:54 66 °F 37.6 °F 29.9 in OSO 5.9 mph 12 mph 35% 0 in
04:59 66 °F 37.6 °F 29.9 in Oeste 6.2 mph 12 mph 35% 0 in
05:04 65.8 °F 37.8 °F 29.9 in ONO 4.7 mph 6 mph 35.4% 0 in
05:09 65.7 °F 37.9 °F 29.9 in ONO 4 mph 5 mph 36% 0 in
05:14 65.3 °F 37.8 °F 29.9 in NE 3 mph 5.2 mph 36.3% 0 in
05:19 64.8 °F 37.9 °F 29.9 in NE 2.4 mph 5.2 mph 37% 0 in
05:24 64.2 °F 38.1 °F 29.9 in NE 2.9 mph 5 mph 38% 0 in
05:29 63.9 °F 38.1 °F 29.9 in SE 3.1 mph 5.2 mph 38.8% 0 in
05:34 63.3 °F 37.9 °F 29.9 in Sur 2.4 mph 5 mph 39% 0 in
05:39 63.1 °F 37.8 °F 29.9 in Sur 2 mph 3 mph 39% 0 in
05:44 63.1 °F 37.8 °F 29.9 in Sur 1.6 mph 5.2 mph 39% 0 in
05:49 63.3 °F 37.9 °F 29.9 in SSO 1.4 mph 8.1 mph 39% 0 in
05:54 63.9 °F 38.3 °F 29.9 in SSO 2.7 mph 8.5 mph 38.7% 0 in
05:59 64.2 °F 38.1 °F 29.9 in SSO 3.6 mph 9 mph 38% 0 in
06:04 64.2 °F 38.3 °F 29.9 in Sur 4 mph 6 mph 38.4% 0 in
06:09 64 °F 38.5 °F 29.9 in SSO 4.3 mph 6.9 mph 38.7% 0 in
06:14 64.2 °F 38.5 °F 29.9 in SO 3.9 mph 8.5 mph 38.7% 0 in
06:19 64.2 °F 38.3 °F 29.9 in SO 3.6 mph 9.7 mph 38.1% 0 in
06:24 64.2 °F 38.1 °F 29.9 in SO 5 mph 10 mph 38% 0 in
06:29 64.2 °F 38.1 °F 29.9 in SO 5.9 mph 10.4 mph 38.1% 0 in
06:34 64.4 °F 38.1 °F 29.9 in SO 5.5 mph 10.4 mph 38% 0 in
06:39 64.4 °F 38.1 °F 29.9 in SO 5.2 mph 9 mph 38% 0 in
06:44 64.4 °F 38.3 °F 29.9 in SO 4.9 mph 7 mph 38% 0 in
06:49 64.4 °F 38.1 °F 29.9 in SO 4.7 mph 7 mph 38% 0 in
06:54 64.4 °F 38.1 °F 29.9 in SO 4 mph 7 mph 38% 0 in
06:59 64.2 °F 38.1 °F 29.9 in SO 3.6 mph 7 mph 38% 0 in
07:04 64.2 °F 38.1 °F 29.9 in SSO 3.9 mph 7 mph 38.1% 0 in
07:09 64 °F 38.7 °F 29.9 in SSO 4 mph 7 mph 38.9% 0 in
07:14 63.7 °F 38.8 °F 29.9 in SSE 3.5 mph 7.4 mph 39.7% 0 in
07:19 63.1 °F 38.7 °F 29.9 in SSO 3.1 mph 11.8 mph 40.4% 0 in
07:24 63 °F 38.8 °F 30 in Sur 4.1 mph 12 mph 41% 0 in
07:29 62.8 °F 38.7 °F 30 in SSE 4.7 mph 12.3 mph 41% 0 in
07:34 62.4 °F 38.5 °F 30 in Sur 6.4 mph 13 mph 41% 0 in
07:39 62.4 °F 38.8 °F 30 in Sur 7.4 mph 13 mph 41.6% 0 in
07:44 62.4 °F 38.8 °F 30 in Sur 7.4 mph 10.4 mph 41.8% 0 in
07:49 62.4 °F 39 °F 30 in Sur 7.4 mph 10.7 mph 42% 0 in
07:54 62.4 °F 39 °F 30 in Sur 7.1 mph 11 mph 42% 0 in
07:59 62.8 °F 39 °F 30 in SSO 6.9 mph 11.5 mph 41.6% 0 in
08:04 63.5 °F 39.2 °F 30 in Sur 7.2 mph 12 mph 40.8% 0 in
08:09 63.3 °F 39 °F 30 in SSE 7.4 mph 10 mph 40.5% 0 in
08:14 62.8 °F 39 °F 30 in SSE 6.5 mph 9.2 mph 41.4% 0 in
08:19 62.2 °F 38.8 °F 30 in SE 5.9 mph 9 mph 42% 0 in
08:24 62.1 °F 39.2 °F 30 in SSE 5.5 mph 8 mph 42.7% 0 in
08:29 62.2 °F 39.4 °F 30 in SSO 5.2 mph 7 mph 42.9% 0 in
08:34 62.4 °F 39 °F 30 in SSE 4.9 mph 7 mph 42% 0 in
08:39 62.4 °F 39 °F 30 in SE 4.7 mph 6 mph 42.2% 0 in
08:44 62.2 °F 39.4 °F 30 in SE 4 mph 5.4 mph 42.6% 0 in
08:49 62.6 °F 39.2 °F 30 in SSE 3.6 mph 8.1 mph 42.1% 0 in
08:54 62.8 °F 39.4 °F 30 in Sur 4 mph 8 mph 42% 0 in
08:59 63 °F 39.6 °F 30 in SO 4.3 mph 10.4 mph 42% 0 in
09:04 63 °F 39.6 °F 30 in Sur 5 mph 10 mph 42.2% 0 in
09:09 62.6 °F 39.7 °F 30 in Sur 5.4 mph 8.1 mph 43% 0 in
09:14 62.2 °F 39.9 °F 30 in SSO 5.7 mph 10.2 mph 43.9% 0 in
09:19 62.2 °F 40.1 °F 30 in SSO 5.9 mph 10.4 mph 44% 0 in
09:24 62.4 °F 40.1 °F 30 in SSO 6.1 mph 10 mph 44% 0 in
09:29 62.4 °F 40.3 °F 30 in SSO 6.2 mph 13.7 mph 44% 0 in
09:34 62.8 °F 40.5 °F 30 in SSO 7.1 mph 14 mph 44% 0 in
09:39 62.8 °F 40.6 °F 30 in SO 7.6 mph 13 mph 44% 0 in
09:44 63 °F 40.6 °F 30 in SSO 7.2 mph 13.8 mph 44% 0 in
09:49 63.1 °F 41 °F 30 in SSO 6.9 mph 14 mph 44% 0 in
09:54 63.3 °F 41 °F 30 in SSO 6.9 mph 13 mph 44% 0 in
09:59 63.7 °F 41 °F 30 in SSO 6.9 mph 15.2 mph 43.5% 0 in
10:04 64 °F 41 °F 30 in SSO 7.2 mph 15 mph 43% 0 in
10:09 64.4 °F 41.4 °F 30 in SSO 7.4 mph 15 mph 42.8% 0 in
10:14 64.8 °F 41.2 °F 30 in SO 7.4 mph 12 mph 42.2% 0 in
10:19 64.9 °F 41.4 °F 30 in SO 7.4 mph 13 mph 42% 0 in
10:24 65.5 °F 41.4 °F 30 in SO 6.8 mph 13 mph 41.4% 0 in
10:29 65.8 °F 41.5 °F 30 in SO 6.4 mph 13 mph 41% 0 in
10:34 66 °F 41.7 °F 30 in SO 6.7 mph 13.5 mph 41% 0 in
10:39 66.4 °F 41.9 °F 30.1 in SO 6.9 mph 14 mph 40.9% 0 in
10:44 66.6 °F 41.5 °F 30.1 in SO 6.6 mph 12.7 mph 40.1% 0 in
10:49 66.7 °F 41.7 °F 30.1 in SO 6.4 mph 13 mph 40% 0 in
10:54 66.9 °F 41.9 °F 30.1 in SO 6.7 mph 10.7 mph 40% 0 in
10:59 67.5 °F 42.1 °F 30.1 in SO 6.9 mph 13.7 mph 39.8% 0 in
11:04 67.6 °F 41.9 °F 30.1 in SSO 6.6 mph 15.9 mph 39.1% 0 in
11:09 68 °F 41.4 °F 30.1 in SSO 6.4 mph 16.1 mph 38% 0 in
11:14 68.4 °F 41.5 °F 30.1 in SO 6.7 mph 13 mph 37.8% 0 in
11:19 68.4 °F 41.5 °F 30.1 in SSO 6.9 mph 14 mph 37.5% 0 in
11:24 68.4 °F 41.9 °F 30.1 in SSO 7.3 mph 14 mph 38% 0 in
11:29 68.4 °F 41.9 °F 30.1 in SO 7.6 mph 14 mph 38% 0 in
11:34 68.5 °F 41.9 °F 30.1 in SO 8.1 mph 18.4 mph 38.2% 0 in
11:39 68.5 °F 42.6 °F 30.1 in SSO 8.5 mph 18 mph 38.9% 0 in
11:44 68.7 °F 42.1 °F 30.1 in SSO 8.6 mph 15.2 mph 38.1% 0 in
11:49 68.7 °F 42.1 °F 30.1 in SO 8.7 mph 18.5 mph 38% 0 in
11:54 69.1 °F 42.4 °F 30.1 in SO 9.3 mph 19 mph 38% 0 in
11:59 69.3 °F 42.4 °F 30.1 in SO 9.7 mph 20.4 mph 38% 0 in
12:04 69.3 °F 42.6 °F 30.1 in SO 9.9 mph 21 mph 38.1% 0 in
12:09 69.3 °F 43 °F 30.1 in SSO 10 mph 18 mph 38.7% 0 in
12:14 69.4 °F 42.8 °F 30 in SSO 9.2 mph 18.5 mph 38.3% 0 in
12:19 69.4 °F 43.5 °F 30 in SSO 8.7 mph 19 mph 39% 0 in
12:24 69.6 °F 43.5 °F 30 in SSO 9.6 mph 18 mph 39% 0 in
12:29 70 °F 43.9 °F 30 in SSO 10.2 mph 17 mph 39% 0 in
12:34 70.2 °F 43.9 °F 30 in SSO 8.9 mph 18.1 mph 38.7% 0 in
12:39 70 °F 43.3 °F 30 in SSO 8.1 mph 20.7 mph 38.3% 0 in
12:44 70 °F 43.7 °F 30 in SSO 9.4 mph 21 mph 38.7% 0 in
12:49 70.2 °F 43.9 °F 30 in SSO 10.2 mph 21 mph 38.7% 0 in
12:54 70.3 °F 43.9 °F 30 in SSO 10.1 mph 19 mph 38.6% 0 in
12:59 70.5 °F 43.7 °F 30 in SSO 10 mph 20.4 mph 38% 0 in
13:04 70.5 °F 43.7 °F 30 in SSO 11.2 mph 21 mph 38% 0 in
13:09 70.7 °F 43.9 °F 30 in SSO 11.8 mph 21 mph 38.1% 0 in
13:14 70.9 °F 44.1 °F 30 in SSO 10.5 mph 20.7 mph 38% 0 in
13:19 70.9 °F 43.7 °F 30 in Sur 9.7 mph 21 mph 37.6% 0 in
13:24 71.1 °F 44.1 °F 30 in SSO 11.4 mph 21 mph 38% 0 in
13:29 71.2 °F 43.3 °F 30 in SSO 12.3 mph 20.7 mph 36.6% 0 in
13:34 71.4 °F 43.5 °F 30 in SSO 11.2 mph 21 mph 36.7% 0 in
13:39 71.4 °F 43.3 °F 30 in SSO 10.7 mph 18.4 mph 36.2% 0 in
13:44 71.8 °F 43.3 °F 30 in SSO 10.7 mph 23 mph 36% 0 in
13:49 71.6 °F 43.2 °F 30 in SSO 10.7 mph 23 mph 35.8% 0 in
13:54 71.8 °F 43.3 °F 30 in SSO 11.8 mph 21 mph 36% 0 in
13:59 71.8 °F 43.2 °F 30 in SSO 12.5 mph 21 mph 35.8% 0 in
14:04 72 °F 42.8 °F 30 in SSO 11.3 mph 23 mph 35.1% 0 in
14:09 72 °F 42.8 °F 30 in SSO 10.7 mph 29.9 mph 35% 0 in
14:14 72 °F 42.8 °F 30 in SSO 12.8 mph 30 mph 35% 0 in
14:19 72 °F 43.2 °F 30 in SSO 14 mph 23 mph 35.5% 0 in
14:24 72 °F 43 °F 30 in SSO 12.6 mph 21 mph 35.2% 0 in
14:29 72.1 °F 43.2 °F 30 in SSO 11.8 mph 21 mph 35.2% 0 in
14:34 72.3 °F 43.2 °F 30 in SSO 10.7 mph 20 mph 35% 0 in
14:39 72.1 °F 43 °F 30 in SSO 10 mph 21.9 mph 34.9% 0 in
14:44 72.1 °F 43 °F 30 in SSO 11.4 mph 22 mph 34.9% 0 in
14:49 72.3 °F 42.3 °F 30 in SSO 12.3 mph 18.4 mph 33.8% 0 in
14:54 72.7 °F 42.1 °F 30 in SSO 11.3 mph 18.5 mph 33.4% 0 in
14:59 72.7 °F 41.9 °F 30 in SSO 10.7 mph 19.6 mph 33.1% 0 in
15:04 72.5 °F 41.5 °F 30 in SSO 10.7 mph 20 mph 32.8% 0 in
15:09 72.7 °F 41.5 °F 30 in SSO 10.7 mph 19 mph 32.5% 0 in
15:14 72.7 °F 40.3 °F 30 in SSO 11 mph 19.6 mph 31.1% 0 in
15:19 72.9 °F 39.7 °F 30 in SSO 11.2 mph 21.3 mph 30.1% 0 in
15:24 72.9 °F 39.4 °F 30 in Sur 11.9 mph 21.3 mph 29.7% 0 in
15:29 72.9 °F 38.7 °F 30 in SSO 12.3 mph 21 mph 29% 0 in
15:34 72.9 °F 38.3 °F 30 in SSO 12.3 mph 20 mph 28.5% 0 in
15:39 73 °F 37.9 °F 30 in SSO 12.3 mph 20 mph 28% 0 in
15:44 73 °F 37.9 °F 30 in SSO 11.4 mph 20.7 mph 28% 0 in
15:49 73.2 °F 37.9 °F 30 in SSO 10.7 mph 21 mph 28% 0 in
15:54 73 °F 37.4 °F 30 in SSO 10.3 mph 22.5 mph 27.3% 0 in
15:59 73 °F 37.6 °F 30 in SSO 10 mph 23 mph 27.6% 0 in
16:04 73 °F 37.6 °F 30 in SSO 10.8 mph 21.9 mph 27.5% 0 in
16:09 73 °F 37.4 °F 30 in SSO 11.2 mph 22 mph 27.3% 0 in
16:14 73 °F 37 °F 30 in SSO 11.2 mph 20 mph 27% 0 in
16:19 73 °F 37 °F 30 in SSO 11.2 mph 19 mph 27% 0 in
16:24 73 °F 37 °F 30 in SSO 9.6 mph 18.4 mph 27% 0 in
16:29 72.9 °F 37 °F 30 in SSO 8.7 mph 23.5 mph 27% 0 in
16:34 72.9 °F 36.9 °F 30 in SSO 11.6 mph 23 mph 27% 0 in
16:39 72.9 °F 36.9 °F 30 in SSO 13.5 mph 22 mph 27.1% 0 in
16:44 72.7 °F 36.9 °F 30 in SSO 10.8 mph 21 mph 27.1% 0 in
16:49 72.7 °F 37.2 °F 30 in SSO 9.2 mph 15 mph 27.5% 0 in
16:54 72.5 °F 37.2 °F 30 in SSO 8.8 mph 19.2 mph 27.8% 0 in
16:59 72.3 °F 36.7 °F 30 in SSO 8.5 mph 20.7 mph 27.3% 0 in
17:04 72.3 °F 36.7 °F 30 in SSO 9.4 mph 21 mph 27.4% 0 in
17:09 72.1 °F 36.7 °F 30 in SSO 10 mph 14 mph 27.5% 0 in
17:14 72 °F 36.7 °F 30 in SSO 9.2 mph 15 mph 27.5% 0 in
17:19 71.8 °F 36.5 °F 30 in SSO 8.7 mph 16.3 mph 27.6% 0 in
17:24 71.6 °F 36.7 °F 30 in SSO 9.3 mph 16.1 mph 27.9% 0 in
17:29 71.4 °F 36.5 °F 30 in SSO 9.7 mph 16.3 mph 28% 0 in
17:34 71.2 °F 36.3 °F 30 in SSO 9.9 mph 17.5 mph 28% 0 in
17:39 71.1 °F 36.3 °F 30 in SSO 10 mph 17 mph 28% 0 in
17:44 70.9 °F 36.1 °F 30 in SSO 9.8 mph 15 mph 28% 0 in
17:49 70.5 °F 36.3 °F 30 in SO 9.7 mph 14 mph 28.6% 0 in
17:54 70.2 °F 36.5 °F 30 in SO 7.9 mph 11.5 mph 29% 0 in
17:59 70 °F 36.5 °F 30 in SO 6.9 mph 13.5 mph 29.4% 0 in
18:04 69.6 °F 36.9 °F 30 in SO 7.3 mph 14 mph 30% 0 in
18:09 69.4 °F 36.7 °F 30 in SO 7.6 mph 13 mph 30% 0 in
18:14 69.4 °F 36.7 °F 30 in Oeste 6.7 mph 12 mph 30.2% 0 in
18:19 69.1 °F 37.2 °F 30 in NO 6.2 mph 9 mph 31.2% 0 in
18:24 68.5 °F 37.8 °F 30 in NO 5.3 mph 8 mph 32.4% 0 in
18:29 68 °F 37.8 °F 30 in OSO 4.7 mph 10.4 mph 33% 0 in
18:34 68 °F 37.8 °F 30 in Oeste 4.7 mph 10 mph 33% 0 in
18:39 68.2 °F 37.9 °F 30 in Oeste 4.7 mph 10 mph 33% 0 in
18:44 68.2 °F 38.5 °F 30 in ONO 4.3 mph 14.5 mph 33.6% 0 in
18:49 68.5 °F 39.7 °F 30 in ONO 4 mph 16.8 mph 35% 0 in
18:54 68.7 °F 40.1 °F 30 in ONO 5.4 mph 17 mph 35.4% 0 in
18:59 68.7 °F 40.6 °F 30 in ONO 6.2 mph 14 mph 36% 0 in
19:04 68.7 °F 40.6 °F 30 in ONO 6.6 mph 14 mph 36% 0 in
19:09 68.4 °F 41.2 °F 30 in ONO 6.9 mph 13 mph 37.2% 0 in
19:14 67.8 °F 41.7 °F 30 in NO 6.5 mph 14 mph 38.4% 0 in
19:19 67.5 °F 41.9 °F 30 in ONO 6.2 mph 14 mph 39.6% 0 in
19:24 67.3 °F 42.1 °F 30 in ONO 6.6 mph 13 mph 40% 0 in
19:29 67.3 °F 42.1 °F 30 in Oeste 6.9 mph 11 mph 39.9% 0 in
19:34 67.6 °F 41.7 °F 30 in Oeste 6.3 mph 10.4 mph 39% 0 in
19:39 67.6 °F 41.7 °F 30 in Oeste 5.9 mph 11.5 mph 39% 0 in
19:44 67.6 °F 41.9 °F 30 in ONO 5.9 mph 12 mph 39% 0 in
19:49 67.6 °F 42.3 °F 30 in ONO 5.9 mph 10 mph 39.7% 0 in
19:54 67.5 °F 42.3 °F 30 in ONO 5.5 mph 9 mph 40% 0 in
19:59 67.5 °F 42.4 °F 30 in NO 5.2 mph 7.6 mph 40.3% 0 in
20:04 67.1 °F 42.4 °F 30 in ONO 5.2 mph 9.2 mph 41% 0 in
20:09 66.9 °F 42.4 °F 30.1 in Oeste 5.2 mph 14 mph 41% 0 in
20:14 66.9 °F 42.4 °F 30.1 in Oeste 5.8 mph 14 mph 41% 0 in
20:19 66.9 °F 42.4 °F 30.1 in OSO 6.2 mph 10 mph 41% 0 in
20:24 66.9 °F 42.4 °F 30.1 in OSO 5.6 mph 10.7 mph 41% 0 in
20:29 66.9 °F 42.4 °F 30.1 in SO 5.2 mph 12 mph 41% 0 in
20:34 66.7 °F 42.6 °F 30.1 in OSO 5.3 mph 12 mph 41.5% 0 in
20:39 66.7 °F 42.8 °F 30.1 in OSO 5.4 mph 9 mph 42% 0 in
20:44 66.6 °F 42.6 °F 30.1 in Oeste 4 mph 6.2 mph 42% 0 in
20:49 66.4 °F 43 °F 30.1 in OSO 3.1 mph 6 mph 42.9% 0 in
20:54 66 °F 42.8 °F 30.1 in OSO 3 mph 6.9 mph 43% 0 in
20:59 65.7 °F 42.6 °F 30.1 in OSO 2.9 mph 7 mph 43% 0 in
21:04 65.1 °F 42.3 °F 30.1 in Sur 2.2 mph 5 mph 43.4% 0 in
21:09 64.4 °F 42.4 °F 30.1 in Sur 1.8 mph 5 mph 44.6% 0 in
21:14 64 °F 42.3 °F 30.1 in SSE 1.9 mph 5.2 mph 45.1% 0 in
21:19 63.9 °F 42.6 °F 30.1 in SSE 2 mph 6.2 mph 46% 0 in
21:24 63.7 °F 42.4 °F 30.1 in Sur 3 mph 6 mph 46% 0 in
21:29 63.7 °F 42.6 °F 30.1 in Sur 3.6 mph 5.2 mph 46% 0 in
21:34 63.9 °F 42.6 °F 30.1 in Sur 3.3 mph 6.2 mph 46% 0 in
21:39 63.7 °F 42.4 °F 30.1 in Sur 3.1 mph 6 mph 46% 0 in
21:44 63.9 °F 42.6 °F 30.1 in Sur 3.7 mph 5.9 mph 46% 0 in
21:49 63.9 °F 42.6 °F 30.1 in Sur 4 mph 6 mph 46% 0 in
21:54 63.7 °F 42.6 °F 30.1 in Sur 3.3 mph 5 mph 46% 0 in
21:59 63.7 °F 42.4 °F 30.1 in SSO 2.9 mph 5 mph 46% 0 in
22:04 63.7 °F 42.4 °F 30.1 in Sur 2.5 mph 6.4 mph 46% 0 in
22:09 63.7 °F 42.4 °F 30.1 in Sur 2.4 mph 7 mph 46% 0 in
22:14 63.7 °F 42.4 °F 30.1 in SSO 3.4 mph 7 mph 46% 0 in
22:19 63.7 °F 42.4 °F 30.1 in SSO 4 mph 6 mph 46% 0 in
22:24 63.7 °F 42.4 °F 30.1 in SSO 3.8 mph 5.9 mph 45.8% 0 in
22:29 63.5 °F 42.4 °F 30.1 in SO 3.6 mph 6 mph 46% 0 in
22:34 63.5 °F 42.3 °F 30.1 in SO 3.9 mph 6 mph 46% 0 in
22:39 63.3 °F 42.1 °F 30.1 in OSO 4 mph 6 mph 46% 0 in
22:44 63 °F 42.4 °F 30.1 in OSO 3.8 mph 5 mph 46.9% 0 in
22:49 62.8 °F 42.4 °F 30.1 in OSO 3.6 mph 5 mph 47.3% 0 in
22:54 62.2 °F 42.6 °F 30.1 in NO 3.2 mph 5 mph 48.8% 0 in
22:59 61.3 °F 42.8 °F 30.1 in Oeste 2.9 mph 5 mph 50.6% 0 in
23:04 60.4 °F 43 °F 30.1 in OSO 2.9 mph 5 mph 52.2% 0 in
23:09 60.3 °F 43 °F 30.1 in SSO 2.9 mph 5.2 mph 53% 0 in
23:14 59.9 °F 42.8 °F 30.1 in Este 2.9 mph 6.2 mph 53.1% 0 in
23:19 59.5 °F 42.8 °F 30.1 in SE 2.9 mph 6.2 mph 54% 0 in
23:24 59.2 °F 42.4 °F 30.1 in SSE 3.5 mph 6.9 mph 54% 0 in
23:29 58.8 °F 42.3 °F 30.1 in SE 4 mph 7 mph 54% 0 in
23:34 58.8 °F 42.3 °F 30.1 in SSE 4 mph 7 mph 54% 0 in
23:39 58.6 °F 42.4 °F 30.1 in SSE 4 mph 5.8 mph 55% 0 in
23:44 58.6 °F 42.4 °F 30.1 in SSE 3.7 mph 6 mph 55% 0 in
23:49 58.6 °F 42.3 °F 30.1 in SSE 3.6 mph 5.4 mph 54.6% 0 in
23:54 58.8 °F 42.3 °F 30.1 in SSE 3.6 mph 6 mph 54% 0 in
23:59 59 °F 42.3 °F 30.1 in Sur 3.6 mph 6 mph 54% 0 in
Murcia-Puente Tocinos, España
Compliments of Weather Underground - 3.5 mb

La estación de MeteoMurcia.com, publica sus datos en los siguientes proyectos:

Weather Underground PWS IMURCIAP2 Meteoclimatic www.awekas.at

W3Counter
Web Analytics